Time;durP1;ratioP1;P1;durP2;ratioP2;P2;SDS_P1;SDS_P2;PMS_P1;PMS_P2;Temp;Humidity;BMP_temperature;BMP_pressure;BME280_temperature;BME280_humidity;BME280_pressure;Samples;Min_cycle;Max_cycle;Signal;HPM_P1;HPM_P2
2024/04/04 00:02:21;;;;;;;0.20;0.10;;;12.70;96.70;;;;;;5065443;28;20505;-62
2024/04/04 00:04:57;;;;;;;0.40;0.10;;;12.60;96.70;;;;;;5083566;28;20047;-61
2024/04/04 00:07:22;;;;;;;1.15;0.10;;;12.70;96.70;;;;;;5082637;28;20076;-61
2024/04/04 00:09:51;;;;;;;0.15;0.00;;;12.60;96.70;;;;;;5082310;28;20059;-61
2024/04/04 00:12:19;;;;;;;1.52;0.10;;;12.60;96.70;;;;;;5068368;28;20147;-60
2024/04/04 00:14:45;;;;;;;0.80;0.08;;;12.60;96.70;;;;;;5081934;28;20036;-61
2024/04/04 00:17:10;;;;;;;0.70;0.10;;;12.50;96.70;;;;;;5061011;28;20051;-59
2024/04/04 00:19:36;;;;;;;0.63;0.05;;;12.50;96.60;;;;;;5044563;28;20106;-61
2024/04/04 00:22:02;;;;;;;0.80;0.10;;;12.40;96.60;;;;;;5025357;28;20025;-60
2024/04/04 00:24:27;;;;;;;2.55;0.20;;;12.40;96.70;;;;;;5039563;28;20112;-60
2024/04/04 00:26:53;;;;;;;0.15;0.03;;;12.40;96.80;;;;;;5044971;28;20057;-60
2024/04/04 00:29:18;;;;;;;1.55;0.13;;;12.30;96.80;;;;;;5062395;28;20078;-61
2024/04/04 00:31:44;;;;;;;0.15;0.00;;;12.30;96.80;;;;;;5039282;28;20085;-60
2024/04/04 00:34:09;;;;;;;1.38;0.20;;;12.30;96.80;;;;;;4986985;28;20037;-60
2024/04/04 00:36:35;;;;;;;0.45;0.10;;;12.30;96.80;;;;;;4990984;28;20121;-60
2024/04/04 00:39:01;;;;;;;2.78;0.20;;;12.30;96.80;;;;;;4982843;28;20039;-61
2024/04/04 00:41:26;;;;;;;0.00;0.00;;;12.30;96.70;;;;;;4946559;28;20138;-60
2024/04/04 00:43:58;;;;;;;0.50;0.10;;;12.30;96.70;;;;;;4973032;28;20161;-62
2024/04/04 00:46:24;;;;;;;3.17;0.10;;;12.30;96.70;;;;;;4978011;28;20043;-61
2024/04/04 00:48:51;;;;;;;0.80;0.10;;;12.30;96.60;;;;;;4974648;28;20105;-60
2024/04/04 00:51:17;;;;;;;0.30;0.05;;;12.20;96.60;;;;;;4981175;28;20074;-60
2024/04/04 00:53:42;;;;;;;1.50;0.10;;;12.20;96.80;;;;;;4978444;28;20132;-60
2024/04/04 00:56:08;;;;;;;0.10;0.00;;;12.20;96.90;;;;;;4983868;28;20478;-60
2024/04/04 00:58:35;;;;;;;2.53;0.20;;;12.20;96.90;;;;;;4981047;28;20049;-60
2024/04/04 01:01:01;;;;;;;1.45;0.10;;;12.20;97.10;;;;;;4984171;28;20371;-60
2024/04/04 01:03:27;;;;;;;2.88;0.20;;;12.10;97.20;;;;;;4982443;28;20092;-62
2024/04/04 01:05:52;;;;;;;0.98;0.13;;;12.10;97.20;;;;;;4970855;28;20038;-60
2024/04/04 01:08:19;;;;;;;0.60;0.10;;;12.10;97.40;;;;;;4979161;28;20060;-60
2024/04/04 01:10:44;;;;;;;4.53;0.10;;;12.20;97.50;;;;;;4981276;28;20097;-59
2024/04/04 01:13:10;;;;;;;1.52;0.10;;;12.20;97.60;;;;;;4976220;28;20406;-61
2024/04/04 01:15:35;;;;;;;4.57;0.30;;;12.20;97.50;;;;;;4966898;28;20407;-61
2024/04/04 01:18:01;;;;;;;2.58;0.20;;;12.10;97.70;;;;;;4973931;28;20030;-60
2024/04/04 01:20:26;;;;;;;0.10;0.03;;;12.10;97.70;;;;;;4973307;28;20496;-60
2024/04/04 01:22:52;;;;;;;0.52;0.05;;;12.10;97.60;;;;;;4948788;28;20052;-61
2024/04/04 01:25:18;;;;;;;0.30;0.10;;;12.10;97.70;;;;;;4949483;28;20044;-60
2024/04/04 01:27:48;;;;;;;1.42;0.20;;;12.10;97.80;;;;;;4932050;28;20046;-61
2024/04/04 01:30:13;;;;;;;0.28;0.05;;;12.10;97.90;;;;;;4918984;28;20051;-60
2024/04/04 01:32:39;;;;;;;0.32;0.05;;;12.20;97.90;;;;;;4929223;28;20050;-62
2024/04/04 01:35:05;;;;;;;1.05;0.13;;;12.10;97.90;;;;;;4960090;28;20564;-60
2024/04/04 01:37:30;;;;;;;2.05;0.10;;;12.20;98.00;;;;;;4965203;28;20041;-61
2024/04/04 01:39:56;;;;;;;4.47;0.20;;;12.20;98.00;;;;;;4949147;28;20050;-60
2024/04/04 01:42:22;;;;;;;0.63;0.10;;;12.20;98.00;;;;;;4915024;29;20098;-61
2024/04/04 01:44:53;;;;;;;0.98;0.10;;;12.10;98.00;;;;;;4939685;28;20430;-61
2024/04/04 01:47:19;;;;;;;0.60;0.10;;;12.10;98.00;;;;;;4939335;28;20043;-61
2024/04/04 01:49:44;;;;;;;0.20;0.10;;;12.10;98.10;;;;;;4935580;28;20055;-60
2024/04/04 01:52:10;;;;;;;1.75;0.20;;;12.10;98.20;;;;;;4944794;28;20095;-60
2024/04/04 01:54:35;;;;;;;2.22;0.20;;;12.20;98.20;;;;;;4944117;28;20073;-60
2024/04/04 01:57:01;;;;;;;0.43;0.10;;;12.20;98.10;;;;;;4933983;28;20043;-60
2024/04/04 01:59:26;;;;;;;1.15;0.10;;;12.30;98.20;;;;;;4882633;29;20423;-60
2024/04/04 02:01:52;;;;;;;1.25;0.10;;;12.30;98.20;;;;;;4873976;29;20048;-60
2024/04/04 02:04:18;;;;;;;1.50;0.20;;;12.40;98.10;;;;;;4844490;29;20059;-59
2024/04/04 02:06:44;;;;;;;0.77;0.13;;;12.30;98.10;;;;;;4868926;29;20048;-60
2024/04/04 02:09:16;;;;;;;1.00;0.20;;;12.40;98.20;;;;;;4907736;29;20043;-60
2024/04/04 02:11:42;;;;;;;2.28;0.25;;;12.40;98.20;;;;;;4813766;29;20129;-60
2024/04/04 02:14:10;;;;;;;0.65;0.20;;;12.30;98.10;;;;;;4817832;29;20537;-60
2024/04/04 02:16:39;;;;;;;1.30;0.13;;;12.30;98.10;;;;;;4819032;29;20056;-59
2024/04/04 02:19:05;;;;;;;1.92;0.22;;;12.30;98.20;;;;;;4804793;29;20047;-61
2024/04/04 02:21:31;;;;;;;1.83;0.10;;;12.40;98.20;;;;;;4813224;29;20054;-60
2024/04/04 02:23:58;;;;;;;1.08;0.20;;;12.40;98.20;;;;;;4815643;29;20047;-61
2024/04/04 02:26:23;;;;;;;0.70;0.03;;;12.40;98.20;;;;;;4811178;29;20080;-61
2024/04/04 02:28:49;;;;;;;3.00;0.10;;;12.40;98.00;;;;;;4812033;29;20473;-60
2024/04/04 02:31:15;;;;;;;0.10;0.05;;;12.40;98.20;;;;;;4811010;29;20042;-60
2024/04/04 02:33:40;;;;;;;1.48;0.10;;;12.50;98.20;;;;;;4789881;29;20449;-60
2024/04/04 02:36:06;;;;;;;1.48;0.30;;;12.50;98.20;;;;;;4752701;29;20059;-61
2024/04/04 02:38:32;;;;;;;1.58;0.20;;;12.50;98.30;;;;;;4779854;29;20174;-60
2024/04/04 02:40:58;;;;;;;2.60;0.20;;;12.50;98.40;;;;;;4775680;29;20515;-61
2024/04/04 02:43:33;;;;;;;2.10;0.20;;;12.50;98.30;;;;;;4764583;29;20041;-60
2024/04/04 02:46:03;;;;;;;1.85;0.22;;;12.60;98.30;;;;;;4778575;29;20250;-61
2024/04/04 02:48:29;;;;;;;0.57;0.10;;;12.60;98.40;;;;;;4746671;29;20401;-61
2024/04/04 02:50:58;;;;;;;2.10;0.30;;;12.60;98.40;;;;;;4743828;30;20063;-60
2024/04/04 02:53:24;;;;;;;1.33;0.20;;;12.60;98.30;;;;;;4760834;29;20121;-61
2024/04/04 02:55:57;;;;;;;2.05;0.30;;;12.60;98.30;;;;;;4760547;29;20134;-60
2024/04/04 02:58:23;;;;;;;1.60;0.20;;;12.70;98.50;;;;;;4753870;29;20057;-60
2024/04/04 03:01:02;;;;;;;1.23;0.30;;;12.60;98.30;;;;;;4734313;30;20040;-61
2024/04/04 03:03:27;;;;;;;0.73;0.20;;;12.60;98.50;;;;;;4731623;30;20137;-60
2024/04/04 03:05:53;;;;;;;1.52;0.17;;;12.60;98.40;;;;;;4732639;30;20351;-62
2024/04/04 03:08:18;;;;;;;0.77;0.20;;;12.60;98.30;;;;;;4731857;30;20058;-60
2024/04/04 03:10:44;;;;;;;2.67;0.20;;;12.50;98.40;;;;;;4706777;30;20064;-61
2024/04/04 03:13:10;;;;;;;0.15;0.08;;;12.50;98.60;;;;;;4713019;30;20420;-62
2024/04/04 03:15:35;;;;;;;1.13;0.20;;;12.50;98.60;;;;;;4726227;30;20068;-61
2024/04/04 03:18:01;;;;;;;0.80;0.20;;;12.50;98.80;;;;;;4733868;30;20505;-61
2024/04/04 03:20:27;;;;;;;1.67;0.20;;;12.60;98.90;;;;;;4751202;30;20035;-61
2024/04/04 03:22:59;;;;;;;0.98;0.20;;;12.60;98.80;;;;;;4735658;30;22894;-61
2024/04/04 03:25:26;;;;;;;1.23;0.28;;;12.60;98.80;;;;;;4685252;30;20037;-61
2024/04/04 03:27:51;;;;;;;1.15;0.20;;;12.60;98.90;;;;;;4708482;30;20053;-61
2024/04/04 03:30:17;;;;;;;0.88;0.13;;;12.60;99.00;;;;;;4709990;30;20080;-61
2024/04/04 03:32:43;;;;;;;4.03;0.30;;;12.70;99.10;;;;;;4729108;30;20048;-61
2024/04/04 03:35:08;;;;;;;2.15;0.17;;;12.70;98.90;;;;;;4750853;30;20051;-61
2024/04/04 03:37:34;;;;;;;1.63;0.22;;;12.70;98.80;;;;;;4747559;30;20047;-61
2024/04/04 03:40:00;;;;;;;1.67;0.13;;;12.70;98.80;;;;;;4743670;30;20523;-62
2024/04/04 03:42:26;;;;;;;1.83;0.10;;;12.70;98.80;;;;;;4712702;30;20690;-61
2024/04/04 03:44:52;;;;;;;0.90;0.20;;;12.70;99.00;;;;;;4726826;30;20052;-61
2024/04/04 03:47:19;;;;;;;2.70;0.30;;;12.70;99.00;;;;;;4717016;30;20397;-61
2024/04/04 03:49:44;;;;;;;1.98;0.13;;;12.70;99.00;;;;;;4725425;30;20060;-61
2024/04/04 03:52:10;;;;;;;2.25;0.32;;;12.70;99.40;;;;;;4718367;30;20055;-61
2024/04/04 03:54:36;;;;;;;0.80;0.20;;;12.80;99.10;;;;;;4710561;30;20499;-62
2024/04/04 03:57:02;;;;;;;4.07;0.20;;;12.80;99.10;;;;;;4703338;30;20559;-61
2024/04/04 03:59:27;;;;;;;1.95;0.28;;;12.80;99.00;;;;;;4696318;30;20111;-61
2024/04/04 04:01:53;;;;;;;1.75;0.30;;;12.80;99.10;;;;;;4682746;30;20058;-61
2024/04/04 04:04:19;;;;;;;0.65;0.10;;;12.80;99.10;;;;;;4668996;30;20052;-60
2024/04/04 04:06:45;;;;;;;0.45;0.10;;;12.80;99.10;;;;;;4655729;30;20124;-61
2024/04/04 04:09:16;;;;;;;1.77;0.10;;;12.80;99.00;;;;;;4649322;30;20119;-61
2024/04/04 04:11:42;;;;;;;1.30;0.28;;;12.80;99.00;;;;;;4658114;30;20054;-62
2024/04/04 04:14:09;;;;;;;1.95;0.25;;;12.90;99.00;;;;;;4649825;30;21281;-61
2024/04/04 04:16:34;;;;;;;0.47;0.15;;;12.90;98.90;;;;;;4644306;30;20053;-62
2024/04/04 04:19:01;;;;;;;0.50;0.13;;;12.90;99.00;;;;;;4663524;30;20050;-61
2024/04/04 04:21:26;;;;;;;1.60;0.25;;;12.90;98.80;;;;;;4655763;30;20034;-62
2024/04/04 04:23:54;;;;;;;3.83;0.30;;;12.90;98.80;;;;;;4636986;30;20420;-61
2024/04/04 04:26:20;;;;;;;1.13;0.17;;;12.90;98.90;;;;;;4675613;30;20049;-62
2024/04/04 04:28:46;;;;;;;0.82;0.13;;;12.90;99.00;;;;;;4636643;30;20051;-61
2024/04/04 04:31:40;;;;;;;1.65;0.28;;;12.90;99.00;;;;;;4605254;30;20142;-61
2024/04/04 04:34:06;;;;;;;0.82;0.20;;;12.90;99.10;;;;;;4571058;30;20114;-61
2024/04/04 04:36:35;;;;;;;0.80;0.22;;;12.90;99.10;;;;;;4587283;31;20064;-62
2024/04/04 04:39:01;;;;;;;2.53;0.38;;;13.00;99.10;;;;;;4578992;31;20518;-62
2024/04/04 04:41:27;;;;;;;1.25;0.10;;;13.00;99.10;;;;;;4573779;30;20057;-61
2024/04/04 04:43:59;;;;;;;1.20;0.22;;;12.90;99.10;;;;;;4631516;30;20050;-61
2024/04/04 04:46:26;;;;;;;2.13;0.30;;;12.90;99.20;;;;;;4655149;30;20061;-62
2024/04/04 04:48:51;;;;;;;1.65;0.20;;;12.90;99.30;;;;;;4639535;30;20467;-61
2024/04/04 04:51:17;;;;;;;1.45;0.30;;;12.90;99.20;;;;;;4639992;30;20058;-61
2024/04/04 04:53:43;;;;;;;1.25;0.17;;;12.90;99.30;;;;;;4640846;30;20473;-61
2024/04/04 04:56:10;;;;;;;3.25;0.32;;;12.90;99.40;;;;;;4633210;30;20051;-61
2024/04/04 04:58:36;;;;;;;1.52;0.30;;;13.00;99.40;;;;;;4621185;30;20085;-62
2024/04/04 05:01:03;;;;;;;2.42;0.30;;;13.00;99.40;;;;;;4613502;30;20489;-61
2024/04/04 05:03:28;;;;;;;1.98;0.40;;;13.00;99.50;;;;;;4600631;30;20055;-62
2024/04/04 05:05:54;;;;;;;2.50;0.40;;;13.00;99.60;;;;;;4595280;30;20549;-61
2024/04/04 05:08:20;;;;;;;1.15;0.30;;;13.00;99.70;;;;;;4585630;31;20378;-61
2024/04/04 05:10:47;;;;;;;1.83;0.20;;;13.10;99.80;;;;;;4565168;31;20067;-62
2024/04/04 05:13:13;;;;;;;3.22;0.47;;;13.20;99.70;;;;;;4577742;31;20082;-61
2024/04/04 05:18:41;;;;;;;4.25;0.38;;;13.20;99.70;;;;;;5114954;27;20123;-61
2024/04/04 05:21:07;;;;;;;4.22;0.30;;;13.20;99.80;;;;;;5107578;28;20450;-60
2024/04/04 05:23:33;;;;;;;1.25;0.10;;;13.20;99.90;;;;;;5107546;28;20073;-60
2024/04/04 05:25:59;;;;;;;1.60;0.28;;;13.30;99.90;;;;;;5110664;28;20027;-61
2024/04/04 05:28:30;;;;;;;2.20;0.25;;;13.30;99.90;;;;;;5110668;28;20050;-61
2024/04/04 05:30:57;;;;;;;1.15;0.30;;;13.30;99.90;;;;;;5111055;28;20104;-60
2024/04/04 05:33:24;;;;;;;2.78;0.28;;;13.30;99.90;;;;;;5107658;28;20122;-61
2024/04/04 05:35:50;;;;;;;1.95;0.30;;;13.40;99.90;;;;;;5111211;28;20034;-60
2024/04/04 05:38:15;;;;;;;0.52;0.15;;;13.40;99.90;;;;;;5091600;28;20052;-61
2024/04/04 05:40:41;;;;;;;1.05;0.20;;;13.40;99.90;;;;;;5113647;27;20130;-61
2024/04/04 05:43:06;;;;;;;3.40;0.30;;;13.40;99.90;;;;;;5109154;28;20027;-60
2024/04/04 05:45:32;;;;;;;1.90;0.32;;;13.50;99.90;;;;;;5108832;28;20119;-60
2024/04/04 05:47:58;;;;;;;2.03;0.32;;;13.50;99.90;;;;;;5107090;28;20490;-60
2024/04/04 05:50:23;;;;;;;3.60;0.40;;;13.50;99.90;;;;;;5114487;27;20047;-60
2024/04/04 05:52:49;;;;;;;4.30;0.30;;;13.50;99.90;;;;;;5128582;27;20432;-61
2024/04/04 05:55:15;;;;;;;1.85;0.30;;;13.60;99.90;;;;;;5131488;27;20034;-61
2024/04/04 05:57:40;;;;;;;2.17;0.20;;;13.60;99.90;;;;;;5132172;27;20039;-59
2024/04/04 06:00:08;;;;;;;2.33;0.20;;;13.60;99.70;;;;;;5131589;27;20063;-61
2024/04/04 06:02:34;;;;;;;2.05;0.22;;;13.60;99.60;;;;;;5118866;27;20373;-60
2024/04/04 06:05:06;;;;;;;1.95;0.30;;;13.70;99.60;;;;;;5112983;28;20036;-60
2024/04/04 06:07:32;;;;;;;6.15;0.40;;;13.70;99.60;;;;;;5108000;28;20601;-60
2024/04/04 06:09:58;;;;;;;1.77;0.20;;;13.70;99.50;;;;;;5110857;28;20073;-60
2024/04/04 06:12:24;;;;;;;1.02;0.20;;;13.70;99.50;;;;;;5114202;28;20096;-61
2024/04/04 06:14:49;;;;;;;1.63;0.20;;;13.70;99.70;;;;;;5111491;28;20032;-60
2024/04/04 06:17:15;;;;;;;8.57;0.40;;;13.70;99.80;;;;;;5112221;28;20048;-60
2024/04/04 06:19:40;;;;;;;1.13;0.00;;;13.70;99.80;;;;;;5108080;28;20039;-60
2024/04/04 06:22:06;;;;;;;0.85;0.15;;;13.70;99.70;;;;;;5108602;28;20055;-61
2024/04/04 06:24:32;;;;;;;1.35;0.20;;;13.60;99.90;;;;;;5110336;28;20039;-60
2024/04/04 06:27:04;;;;;;;1.63;0.17;;;13.60;99.90;;;;;;5109037;28;20030;-60
2024/04/04 06:29:30;;;;;;;5.93;0.40;;;13.60;99.90;;;;;;5094712;28;20168;-61
2024/04/04 06:31:57;;;;;;;1.30;0.10;;;13.50;99.90;;;;;;5096364;28;20078;-60
2024/04/04 06:34:23;;;;;;;4.97;0.40;;;13.60;99.90;;;;;;5098549;28;20046;-60
2024/04/04 06:36:48;;;;;;;3.40;0.13;;;13.50;99.90;;;;;;5095296;28;20031;-60
2024/04/04 06:39:15;;;;;;;11.07;0.73;;;13.40;99.90;;;;;;5092856;28;20050;-60
2024/04/04 06:41:44;;;;;;;3.80;0.30;;;13.50;99.90;;;;;;5094913;28;20036;-60
2024/04/04 06:44:10;;;;;;;0.52;0.10;;;13.50;99.90;;;;;;5094973;28;20055;-60
2024/04/04 06:46:36;;;;;;;5.28;0.32;;;13.50;99.90;;;;;;5095403;28;20110;-61
2024/04/04 06:49:02;;;;;;;8.63;0.60;;;13.50;99.90;;;;;;5079351;28;20066;-60
2024/04/04 06:51:28;;;;;;;2.47;0.22;;;13.60;99.90;;;;;;5095659;28;20407;-60
2024/04/04 06:53:53;;;;;;;2.75;0.30;;;13.70;99.90;;;;;;5093390;28;20046;-60
2024/04/04 06:56:19;;;;;;;3.58;0.30;;;13.80;99.90;;;;;;5095277;28;20115;-60
2024/04/04 06:58:45;;;;;;;2.92;0.20;;;13.90;99.90;;;;;;5093955;28;20363;-60
2024/04/04 07:01:10;;;;;;;4.07;0.30;;;13.90;99.90;;;;;;5085762;28;20474;-61
2024/04/04 07:03:43;;;;;;;1.73;0.10;;;14.00;99.90;;;;;;5116036;28;20032;-60
2024/04/04 07:06:08;;;;;;;2.80;0.30;;;14.10;99.90;;;;;;5114712;28;20482;-60
2024/04/04 07:08:35;;;;;;;2.17;0.15;;;14.20;99.90;;;;;;5114384;28;20173;-61
2024/04/04 07:11:04;;;;;;;0.90;0.10;;;14.10;99.80;;;;;;5114887;28;20058;-60
2024/04/04 07:13:33;;;;;;;0.32;0.00;;;14.10;99.90;;;;;;5114616;28;20073;-60
2024/04/04 07:16:11;;;;;;;1.50;0.05;;;13.90;99.90;;;;;;5118981;28;20074;-60
2024/04/04 07:18:37;;;;;;;2.63;0.10;;;13.70;99.90;;;;;;5117439;28;20027;-61
2024/04/04 07:21:03;;;;;;;3.40;0.10;;;13.60;99.90;;;;;;5116366;28;20592;-61
2024/04/04 07:23:30;;;;;;;3.40;0.20;;;13.60;99.90;;;;;;5117324;28;20486;-61
2024/04/04 07:25:56;;;;;;;1.92;0.20;;;13.70;99.90;;;;;;5114168;28;20562;-61
2024/04/04 07:28:22;;;;;;;1.17;0.20;;;13.80;99.90;;;;;;5118935;28;20035;-61
2024/04/04 07:30:48;;;;;;;2.67;0.05;;;13.80;99.90;;;;;;5093250;28;20091;-62
2024/04/04 07:33:13;;;;;;;2.17;0.10;;;13.80;99.90;;;;;;5084761;28;20027;-62
2024/04/04 07:35:40;;;;;;;3.67;0.25;;;13.80;99.90;;;;;;5093869;28;20036;-61
2024/04/04 07:38:06;;;;;;;0.60;0.13;;;13.80;99.90;;;;;;5095203;28;20502;-61
2024/04/04 07:40:38;;;;;;;2.08;0.20;;;13.70;99.90;;;;;;5093276;28;20047;-61
2024/04/04 07:43:11;;;;;;;5.32;0.30;;;13.70;99.90;;;;;;5097618;28;20043;-61
2024/04/04 07:45:42;;;;;;;7.70;0.40;;;13.80;99.90;;;;;;5115284;28;20441;-61
2024/04/04 07:48:09;;;;;;;1.95;0.10;;;13.70;99.90;;;;;;5113596;28;20023;-61
2024/04/04 07:50:36;;;;;;;0.80;0.10;;;13.80;99.90;;;;;;5112218;28;20024;-62
2024/04/04 07:53:03;;;;;;;2.92;0.20;;;13.80;99.90;;;;;;5114596;28;20027;-64
2024/04/04 07:55:29;;;;;;;4.13;0.15;;;13.80;99.90;;;;;;5114717;28;20036;-62
2024/04/04 07:57:55;;;;;;;3.08;0.28;;;13.80;99.90;;;;;;5114451;28;20539;-61
2024/04/04 08:00:21;;;;;;;2.08;0.25;;;13.80;99.90;;;;;;5114794;28;20062;-62
2024/04/04 08:02:47;;;;;;;2.05;0.10;;;13.80;99.90;;;;;;5111594;28;20073;-61
2024/04/04 08:05:12;;;;;;;0.45;0.10;;;13.80;99.90;;;;;;5109680;28;20039;-61
2024/04/04 08:07:38;;;;;;;5.55;0.30;;;13.70;99.90;;;;;;5100517;28;20176;-61
2024/04/04 08:10:06;;;;;;;1.55;0.13;;;13.60;99.90;;;;;;5116228;28;20038;-61
2024/04/04 08:12:39;;;;;;;1.05;0.20;;;13.60;99.90;;;;;;5117200;28;20035;-61
2024/04/04 08:15:10;;;;;;;1.20;0.10;;;13.80;99.90;;;;;;5111918;28;20031;-61
2024/04/04 08:17:42;;;;;;;3.72;0.22;;;13.80;99.90;;;;;;5117565;28;20047;-61
2024/04/04 08:20:09;;;;;;;11.27;0.63;;;13.80;99.90;;;;;;5101046;28;20034;-61
2024/04/04 08:22:35;;;;;;;9.82;0.60;;;13.80;99.90;;;;;;5114965;28;20034;-61
2024/04/04 08:25:01;;;;;;;0.00;0.00;;;13.80;99.90;;;;;;5112781;28;20035;-62
2024/04/04 08:27:28;;;;;;;2.65;0.30;;;13.80;99.90;;;;;;5114733;28;20080;-62
2024/04/04 08:29:53;;;;;;;0.40;0.00;;;13.80;99.90;;;;;;5110886;28;20148;-62
2024/04/04 08:32:19;;;;;;;5.90;0.30;;;13.80;99.90;;;;;;5110697;28;20113;-60
2024/04/04 08:34:44;;;;;;;1.70;0.22;;;13.70;99.90;;;;;;5113903;28;20028;-61
2024/04/04 08:37:10;;;;;;;3.33;0.10;;;13.70;99.90;;;;;;5114340;28;20050;-61
2024/04/04 08:39:37;;;;;;;0.63;0.20;;;13.60;99.90;;;;;;5110803;28;20036;-61
2024/04/04 08:42:03;;;;;;;2.28;0.10;;;13.50;99.90;;;;;;5111848;28;20063;-62
2024/04/04 08:44:29;;;;;;;2.78;0.28;;;13.50;99.90;;;;;;5113970;28;21194;-61
2024/04/04 08:46:55;;;;;;;0.90;0.13;;;13.60;99.90;;;;;;5116409;28;20043;-61
2024/04/04 08:49:25;;;;;;;1.90;0.20;;;13.70;99.90;;;;;;5112237;28;20032;-61
2024/04/04 08:51:51;;;;;;;2.83;0.10;;;13.70;99.90;;;;;;5112146;28;20028;-61
2024/04/04 08:54:20;;;;;;;2.50;0.17;;;13.60;99.90;;;;;;5111565;28;20437;-61
2024/04/04 08:56:47;;;;;;;0.00;0.00;;;13.50;99.90;;;;;;5115126;28;20069;-61
2024/04/04 08:59:12;;;;;;;4.00;0.22;;;13.40;99.90;;;;;;5113579;28;20051;-61
2024/04/04 09:01:45;;;;;;;3.53;0.13;;;13.50;99.90;;;;;;5115121;28;20386;-62
2024/04/04 09:04:10;;;;;;;1.13;0.10;;;13.50;99.90;;;;;;5116238;28;20435;-62
2024/04/04 09:06:37;;;;;;;3.70;0.30;;;13.60;99.90;;;;;;5116751;28;20114;-61
2024/04/04 09:09:03;;;;;;;0.88;0.10;;;13.60;99.90;;;;;;5112637;28;20369;-61
2024/04/04 09:11:30;;;;;;;1.98;0.10;;;13.70;99.90;;;;;;5112937;28;20474;-60
2024/04/04 09:14:09;;;;;;;0.50;0.15;;;13.60;99.90;;;;;;5115102;28;20051;-61
2024/04/04 09:16:35;;;;;;;2.70;0.20;;;13.50;99.90;;;;;;5112689;28;20122;-60
2024/04/04 09:19:18;;;;;;;2.17;0.10;;;13.50;99.90;;;;;;5110771;28;20168;-61
2024/04/04 09:21:45;;;;;;;1.25;0.15;;;13.60;99.90;;;;;;5110378;28;20028;-61
2024/04/04 09:24:13;;;;;;;1.02;0.10;;;13.60;99.90;;;;;;5111289;28;20031;-61
2024/04/04 09:26:39;;;;;;;0.30;0.10;;;13.70;99.90;;;;;;5116150;28;20023;-61
2024/04/04 09:29:08;;;;;;;0.45;0.00;;;13.70;99.90;;;;;;5114649;28;20054;-61
2024/04/04 09:31:38;;;;;;;0.15;0.10;;;13.80;99.90;;;;;;5111689;28;20551;-61
2024/04/04 09:34:04;;;;;;;0.05;0.00;;;13.80;99.90;;;;;;5114475;27;20035;-61
2024/04/04 09:36:36;;;;;;;3.60;0.32;;;13.80;99.90;;;;;;5115322;27;20054;-61
2024/04/04 09:39:02;;;;;;;1.10;0.10;;;13.90;99.90;;;;;;5110366;28;20052;-61
2024/04/04 09:41:29;;;;;;;2.00;0.13;;;14.00;99.90;;;;;;5114264;27;21579;-60
2024/04/04 09:43:57;;;;;;;0.93;0.05;;;13.90;99.90;;;;;;5112935;27;20466;-61
2024/04/04 09:46:24;;;;;;;1.95;0.10;;;14.10;99.90;;;;;;5110106;28;20043;-61
2024/04/04 09:48:51;;;;;;;2.72;0.25;;;14.10;99.90;;;;;;5113500;28;20027;-61
2024/04/04 09:51:18;;;;;;;0.82;0.10;;;14.10;99.90;;;;;;5115136;27;20047;-61
2024/04/04 09:53:52;;;;;;;0.40;0.05;;;14.10;99.90;;;;;;5111733;28;20048;-62
2024/04/04 09:56:19;;;;;;;;;;;14.10;99.90;;;;;;5112267;27;20118;-60
2024/04/04 09:58:45;;;;;;;1.58;0.10;;;14.00;99.90;;;;;;5121025;27;20383;-61
2024/04/04 10:01:19;;;;;;;1.58;0.00;;;14.00;99.90;;;;;;5110654;27;20046;-61
2024/04/04 10:03:58;;;;;;;1.05;0.05;;;14.00;99.90;;;;;;5120964;27;20066;-61
2024/04/04 10:06:37;;;;;;;0.00;0.00;;;14.00;99.90;;;;;;5115713;27;22499;-62
2024/04/04 10:09:14;;;;;;;0.68;0.00;;;14.00;99.90;;;;;;5114730;28;20084;-61
2024/04/04 10:11:40;;;;;;;0.43;0.03;;;14.00;99.90;;;;;;5117772;27;20027;-60
2024/04/04 10:14:12;;;;;;;0.10;0.00;;;14.10;99.90;;;;;;5114486;27;20031;-61
2024/04/04 10:16:38;;;;;;;0.25;0.00;;;14.00;99.90;;;;;;5119196;27;20122;-61
2024/04/04 10:19:23;;;;;;;1.42;0.10;;;14.00;99.90;;;;;;5120814;27;20125;-61
2024/04/04 10:21:50;;;;;;;0.00;0.00;;;14.00;99.90;;;;;;5114723;28;20362;-60
2024/04/04 10:24:30;;;;;;;0.38;0.00;;;14.10;99.90;;;;;;5114166;28;20039;-61
2024/04/04 10:26:59;;;;;;;1.38;0.00;;;14.10;99.90;;;;;;5123286;27;20493;-61
2024/04/04 10:29:35;;;;;;;0.45;0.00;;;14.30;99.90;;;;;;5116281;27;20039;-64
2024/04/04 10:32:01;;;;;;;0.00;0.00;;;14.30;99.90;;;;;;5117685;28;20020;-61
2024/04/04 10:34:26;;;;;;;1.63;0.00;;;14.30;99.90;;;;;;5117874;27;20027;-61
2024/04/04 10:36:53;;;;;;;0.40;0.00;;;14.20;99.90;;;;;;5114924;27;20397;-60
2024/04/04 10:39:21;;;;;;;0.13;0.00;;;14.20;99.90;;;;;;5116588;27;20061;-62
2024/04/04 10:41:51;;;;;;;0.65;0.00;;;14.30;99.90;;;;;;5116276;28;20111;-60
2024/04/04 10:44:21;;;;;;;0.00;0.00;;;14.30;99.10;;;;;;5115222;28;20377;-61
2024/04/04 10:46:52;;;;;;;0.15;0.00;;;14.30;98.90;;;;;;5116654;27;20038;-60
2024/04/04 10:49:19;;;;;;;0.00;0.00;;;14.20;99.10;;;;;;5113114;28;20940;-60
2024/04/04 10:51:59;;;;;;;0.00;0.00;;;14.20;98.50;;;;;;5115326;27;20455;-61
2024/04/04 10:54:25;;;;;;;0.25;0.00;;;14.20;99.50;;;;;;5115850;27;20469;-60
2024/04/04 10:56:51;;;;;;;0.00;0.00;;;14.30;99.00;;;;;;5115154;27;20039;-61
2024/04/04 10:59:18;;;;;;;0.00;0.00;;;14.20;99.10;;;;;;5115348;27;20085;-61
2024/04/04 11:01:45;;;;;;;0.00;0.00;;;14.20;98.90;;;;;;5114005;27;20427;-61
2024/04/04 11:04:11;;;;;;;0.08;0.00;;;14.20;99.30;;;;;;5114321;27;20028;-60
2024/04/04 11:06:39;;;;;;;1.88;0.00;;;14.10;99.60;;;;;;5117973;27;20039;-60
2024/04/04 11:09:15;;;;;;;0.10;0.00;;;14.10;99.70;;;;;;5120647;27;20034;-61
2024/04/04 11:11:41;;;;;;;0.93;0.00;;;14.00;99.70;;;;;;5110583;27;20036;-62
2024/04/04 11:14:08;;;;;;;0.38;0.00;;;14.00;99.90;;;;;;5118053;27;20048;-61
2024/04/04 11:16:37;;;;;;;0.03;0.00;;;13.90;99.90;;;;;;5115053;27;20035;-61
2024/04/04 11:19:02;;;;;;;0.00;0.00;;;13.70;99.90;;;;;;5115397;27;20040;-62
2024/04/04 11:21:28;;;;;;;0.35;0.00;;;13.70;99.90;;;;;;5116403;27;20369;-61
2024/04/04 11:23:53;;;;;;;0.32;0.10;;;13.60;99.90;;;;;;5115840;27;20027;-61
2024/04/04 11:26:20;;;;;;;0.00;0.00;;;13.60;99.90;;;;;;5127420;27;20041;-61
2024/04/04 11:28:46;;;;;;;0.40;0.10;;;13.60;99.90;;;;;;5126686;28;20031;-61
2024/04/04 11:31:13;;;;;;;0.00;0.00;;;13.60;99.90;;;;;;5115504;27;20038;-62
2024/04/04 11:33:39;;;;;;;6.22;0.47;;;13.60;99.90;;;;;;5116817;27;20030;-62
2024/04/04 11:36:11;;;;;;;0.55;0.00;;;13.60;99.90;;;;;;5112555;27;20114;-61
2024/04/04 11:38:37;;;;;;;0.03;0.00;;;13.60;99.90;;;;;;5115968;28;20038;-62
2024/04/04 11:41:03;;;;;;;0.15;0.00;;;13.70;99.90;;;;;;5121000;28;20126;-62
2024/04/04 11:43:29;;;;;;;0.00;0.00;;;13.70;99.90;;;;;;5113164;28;20031;-61
2024/04/04 11:45:55;;;;;;;0.80;0.00;;;13.70;99.90;;;;;;5115439;27;20161;-61
2024/04/04 11:48:20;;;;;;;0.00;0.00;;;13.70;99.90;;;;;;5115455;27;20111;-60
2024/04/04 11:50:53;;;;;;;0.45;0.10;;;13.60;99.90;;;;;;5113664;27;20378;-61
2024/04/04 11:53:18;;;;;;;0.00;0.00;;;13.70;99.90;;;;;;5115458;27;20061;-61
2024/04/04 11:55:44;;;;;;;0.00;0.00;;;13.60;99.90;;;;;;5113123;28;20031;-61
2024/04/04 11:58:10;;;;;;;0.13;0.00;;;13.50;99.90;;;;;;5113872;27;20137;-61
2024/04/04 12:00:35;;;;;;;0.00;0.00;;;13.50;99.90;;;;;;5113966;27;20474;-60
2024/04/04 12:03:05;;;;;;;0.80;0.00;;;13.40;99.90;;;;;;5114729;27;20062;-62
2024/04/04 12:05:33;;;;;;;1.80;0.10;;;13.30;99.90;;;;;;5113490;27;20043;-61
2024/04/04 12:07:59;;;;;;;0.10;0.00;;;13.20;99.90;;;;;;5115400;27;20031;-61
2024/04/04 12:10:25;;;;;;;0.05;0.00;;;13.10;99.90;;;;;;5116317;27;20032;-61
2024/04/04 12:12:50;;;;;;;1.20;0.10;;;13.20;99.90;;;;;;5111964;28;20420;-61
2024/04/04 12:15:16;;;;;;;0.00;0.00;;;13.10;99.90;;;;;;5114701;27;20202;-61
2024/04/04 12:17:42;;;;;;;0.03;0.00;;;13.20;99.90;;;;;;5115463;27;20042;-62
2024/04/04 12:20:19;;;;;;;3.47;0.10;;;13.40;99.90;;;;;;5111500;27;20466;-62
2024/04/04 12:22:48;;;;;;;0.55;0.00;;;13.50;99.90;;;;;;5114507;28;20478;-61
2024/04/04 12:25:15;;;;;;;1.27;0.08;;;13.60;99.90;;;;;;5115077;27;20114;-60
2024/04/04 12:27:44;;;;;;;0.70;0.00;;;13.60;99.90;;;;;;5111384;27;20172;-60
2024/04/04 12:30:10;;;;;;;0.28;0.00;;;13.60;99.90;;;;;;5112673;27;20030;-61
2024/04/04 12:32:36;;;;;;;0.52;0.00;;;13.60;99.90;;;;;;5115450;27;20024;-61
2024/04/04 12:35:05;;;;;;;0.00;0.00;;;13.60;99.90;;;;;;5113674;27;20032;-61
2024/04/04 12:37:37;;;;;;;1.25;0.00;;;13.60;99.90;;;;;;5116130;27;20035;-60
2024/04/04 12:40:03;;;;;;;0.52;0.00;;;13.60;99.90;;;;;;5117838;27;20055;-61
2024/04/04 12:42:28;;;;;;;0.00;0.00;;;13.50;99.90;;;;;;5111824;27;20466;-61
2024/04/04 12:44:54;;;;;;;0.03;0.00;;;13.40;99.90;;;;;;5114371;27;20039;-62
2024/04/04 12:47:20;;;;;;;0.28;0.00;;;13.50;99.90;;;;;;5112519;27;20031;-61
2024/04/04 12:49:45;;;;;;;0.00;0.00;;;13.50;99.90;;;;;;5114054;28;20024;-62
2024/04/04 12:52:11;;;;;;;3.50;0.13;;;13.40;99.90;;;;;;5116385;27;20023;-62